Time;durP1;ratioP1;P1;durP2;ratioP2;P2;SDS_P1;SDS_P2;PMS_P1;PMS_P2;Temp;Humidity;BMP_temperature;BMP_pressure;BME280_temperature;BME280_humidity;BME280_pressure;Samples;Min_cycle;Max_cycle;Signal;HPM_P1;HPM_P2
2022/08/15 00:02:11;;;;;;;1.37;1.27;;;;;;;22.60;51.77;95893.97;10318633;28;20038;-28
2022/08/15 00:07:11;;;;;;;1.20;1.10;;;;;;;22.70;52.03;95881.75;10331165;28;20402;-28
2022/08/15 00:12:12;;;;;;;1.30;1.10;;;;;;;22.74;52.04;95885.91;10333473;28;20404;-29
2022/08/15 00:17:12;;;;;;;1.57;1.30;;;;;;;22.77;51.93;95876.44;10329254;28;20393;-29
2022/08/15 00:22:18;;;;;;;1.70;1.33;;;;;;;22.78;51.94;95862.81;10330693;28;20045;-29
2022/08/15 00:27:19;;;;;;;;;;;;;;;22.75;52.00;95857.75;10327569;28;20049;-29
2022/08/15 00:32:25;;;;;;;0.93;0.93;;;;;;;22.92;51.03;95837.66;10328662;28;19925;-29
2022/08/15 00:37:26;;;;;;;0.60;0.60;;;;;;;22.91;50.83;95858.97;10326861;28;20045;-29
2022/08/15 00:42:27;;;;;;;1.40;1.30;;;;;;;22.86;51.63;95871.06;10328193;28;20053;-30
2022/08/15 00:47:29;;;;;;;1.52;1.42;;;;;;;22.85;51.79;95869.41;10327738;28;20038;-29
2022/08/15 00:52:31;;;;;;;1.35;1.23;;;;;;;22.85;51.79;95879.59;10326059;28;20129;-29
2022/08/15 00:57:40;;;;;;;1.30;1.20;;;;;;;22.79;51.92;95874.69;10344183;28;20030;-29
2022/08/15 01:02:41;;;;;;;1.20;0.95;;;;;;;22.84;51.92;95894.94;10324795;28;20026;-31
2022/08/15 01:07:43;;;;;;;1.20;1.10;;;;;;;22.84;52.07;95895.81;10328104;28;20085;-29
2022/08/15 01:12:43;;;;;;;2.95;1.40;;;;;;;22.84;51.89;95903.47;10328550;28;20038;-29
2022/08/15 01:17:45;;;;;;;1.17;0.90;;;;;;;22.96;51.13;95897.97;10323004;28;20034;-28
2022/08/15 01:23:11;;;;;;;0.90;0.90;;;;;;;22.97;50.88;95914.13;10325121;28;20037;-29
2022/08/15 01:28:28;;;;;;;1.77;1.50;;;;;;;22.90;51.64;95921.13;10320884;28;20077;-29
2022/08/15 01:33:31;;;;;;;2.77;1.87;;;;;;;22.88;51.88;95917.78;10325338;28;20046;-30
2022/08/15 01:38:51;;;;;;;1.20;1.10;;;;;;;22.80;51.89;95896.75;10323126;28;20827;-28
2022/08/15 01:43:57;;;;;;;1.15;1.08;;;;;;;22.85;51.89;95912.78;10323003;28;20049;-29
2022/08/15 01:49:09;;;;;;;1.35;1.25;;;;;;;22.86;51.95;95904.25;10325030;28;20108;-28
2022/08/15 01:54:13;;;;;;;0.90;0.90;;;;;;;22.86;52.05;95891.47;10319751;28;20061;-29
2022/08/15 01:59:20;;;;;;;2.13;1.37;;;;;;;22.87;51.95;95894.84;10325073;28;20042;-29
2022/08/15 02:04:31;;;;;;;1.43;1.33;;;;;;;23.00;50.93;95885.94;10333696;28;20030;-29
2022/08/15 02:09:31;;;;;;;1.00;1.00;;;;;;;22.96;50.91;95885.22;10323446;28;20032;-28
2022/08/15 02:14:33;;;;;;;1.40;1.30;;;;;;;22.91;51.61;95884.50;10325347;28;20046;-29
2022/08/15 02:19:34;;;;;;;1.30;1.20;;;;;;;22.90;51.85;95876.91;10325652;28;20034;-29
2022/08/15 02:24:35;;;;;;;1.50;1.23;;;;;;;22.90;51.77;95857.31;10320405;28;20030;-30
2022/08/15 02:29:35;;;;;;;3.25;1.10;;;;;;;22.89;51.75;95859.94;10315341;28;20668;-30
2022/08/15 02:34:36;;;;;;;1.13;1.03;;;;;;;22.88;51.82;95853.13;10325128;28;20040;-29
2022/08/15 02:39:38;;;;;;;1.30;1.20;;;;;;;22.91;51.94;95856.41;10322941;28;20521;-29
2022/08/15 02:44:40;;;;;;;0.93;0.93;;;;;;;22.89;51.86;95849.72;10323540;28;20030;-29
2022/08/15 02:49:43;;;;;;;1.40;1.30;;;;;;;22.99;51.13;95840.88;10322430;28;20065;-29
2022/08/15 02:54:44;;;;;;;0.85;0.85;;;;;;;22.98;50.92;95841.78;10320553;28;20026;-29
2022/08/15 02:59:46;;;;;;;1.13;1.07;;;;;;;22.91;51.55;95838.56;10323091;28;20040;-29
2022/08/15 03:04:53;;;;;;;1.38;1.13;;;;;;;22.93;51.69;95862.34;10322506;28;20396;-28
2022/08/15 03:09:54;;;;;;;1.20;1.10;;;;;;;22.90;51.74;95872.63;10320274;28;20026;-29
2022/08/15 03:14:56;;;;;;;1.25;1.15;;;;;;;22.89;51.79;95876.06;10322917;28;20126;-29
2022/08/15 03:19:57;;;;;;;1.17;1.15;;;;;;;22.87;51.81;95884.63;10321387;28;20465;-31
2022/08/15 03:24:57;;;;;;;1.40;1.30;;;;;;;22.88;51.98;95893.97;10321756;28;20026;-29
2022/08/15 03:29:58;;;;;;;1.58;1.38;;;;;;;22.87;52.17;95894.84;10315854;28;20030;-29
2022/08/15 03:35:01;;;;;;;1.37;1.03;;;;;;;22.97;51.15;95904.75;10324007;28;20042;-29
2022/08/15 03:40:02;;;;;;;1.42;1.30;;;;;;;23.00;50.70;95911.47;10326892;28;20901;-29
2022/08/15 03:45:11;;;;;;;1.52;1.30;;;;;;;22.93;51.49;95908.28;10327197;28;20035;-29
2022/08/15 03:50:12;;;;;;;1.17;1.08;;;;;;;22.92;51.85;95918.53;10330195;28;20038;-30
2022/08/15 03:55:13;;;;;;;1.33;1.10;;;;;;;22.90;51.79;95912.66;10327957;28;20085;-29
2022/08/15 04:00:16;;;;;;;1.40;1.30;;;;;;;22.90;51.88;95903.25;10329831;28;20121;-29
2022/08/15 04:05:18;;;;;;;1.02;1.00;;;;;;;22.72;51.25;95897.88;10328691;28;20113;-29
2022/08/15 04:10:18;;;;;;;1.40;1.30;;;;;;;22.63;51.09;95903.22;10328276;28;20034;-29
2022/08/15 04:15:19;;;;;;;2.53;1.13;;;;;;;22.56;51.29;95894.94;10330464;28;20046;-31
2022/08/15 04:20:20;;;;;;;0.80;0.80;;;;;;;22.76;51.23;95900.31;10344700;28;20030;-29
2022/08/15 04:25:29;;;;;;;1.00;1.00;;;;;;;22.86;50.77;95899.13;10328857;28;20402;-29
2022/08/15 04:30:33;;;;;;;1.10;1.00;;;;;;;22.74;51.37;95902.03;10346716;28;20034;-29
2022/08/15 04:35:36;;;;;;;1.98;1.60;;;;;;;22.66;50.96;95898.88;10322924;28;20057;-29
2022/08/15 04:40:36;;;;;;;1.30;1.20;;;;;;;22.58;51.20;95900.00;10327346;28;20089;-29
2022/08/15 04:45:40;;;;;;;1.17;1.08;;;;;;;22.57;51.13;95878.72;10325080;28;20045;-29
2022/08/15 04:50:44;;;;;;;1.35;1.20;;;;;;;22.54;51.19;95852.47;10326967;28;20058;-29
2022/08/15 04:55:47;;;;;;;1.15;1.05;;;;;;;22.55;51.41;95856.72;10327686;28;20037;-29
2022/08/15 05:00:54;;;;;;;1.00;0.90;;;;;;;22.61;51.50;95859.91;10324883;28;20042;-29
2022/08/15 05:06:08;;;;;;;1.00;0.93;;;;;;;22.76;51.32;95874.78;10327756;28;20515;-30
2022/08/15 05:11:15;;;;;;;1.75;0.70;;;;;;;22.83;50.67;95876.25;10326531;28;20050;-29
2022/08/15 05:16:18;;;;;;;2.53;1.02;;;;;;;22.66;51.26;95872.53;10325492;28;20092;-29
2022/08/15 05:21:19;;;;;;;1.75;0.98;;;;;;;22.62;51.56;95868.38;10327207;28;20567;-29
2022/08/15 05:26:20;;;;;;;1.17;1.00;;;;;;;22.57;51.16;95867.72;10320158;28;20030;-29
2022/08/15 05:31:20;;;;;;;1.02;0.90;;;;;;;22.53;51.25;95855.91;10324079;28;20301;-30
2022/08/15 05:36:26;;;;;;;1.17;1.05;;;;;;;22.48;51.36;95855.22;10324644;28;20057;-28
2022/08/15 05:41:33;;;;;;;1.30;1.20;;;;;;;22.51;51.27;95855.13;10325114;28;20456;-29
2022/08/15 05:46:43;;;;;;;1.00;1.00;;;;;;;22.52;51.35;95851.69;10322310;28;20042;-29
2022/08/15 05:51:48;;;;;;;1.05;0.90;;;;;;;22.70;51.38;95848.59;10316532;28;20027;-29
2022/08/15 05:56:58;;;;;;;0.73;0.70;;;;;;;22.77;50.87;95845.81;10325335;28;20037;-29
2022/08/15 06:02:06;;;;;;;0.80;0.80;;;;;;;22.65;51.19;95843.63;10321939;28;20026;-29
2022/08/15 06:07:11;;;;;;;1.10;0.98;;;;;;;22.63;51.14;95847.09;10318792;28;20045;-30
2022/08/15 06:12:44;;;;;;;0.70;0.70;;;;;;;22.56;51.18;95849.00;10324773;28;20513;-29
2022/08/15 06:17:55;;;;;;;0.80;0.80;;;;;;;22.57;51.17;95848.13;10314070;28;20473;-30
2022/08/15 06:23:15;;;;;;;1.13;1.02;;;;;;;22.56;51.19;95866.88;10322133;28;20405;-30
2022/08/15 06:28:59;;;;;;;0.80;0.80;;;;;;;22.51;51.27;95858.53;10317557;28;20038;-29
2022/08/15 06:34:15;;;;;;;1.20;1.10;;;;;;;22.62;51.51;95864.13;10332328;28;20042;-29
2022/08/15 06:39:22;;;;;;;0.85;0.85;;;;;;;22.82;51.38;95864.38;10323167;28;20126;-29
2022/08/15 06:44:23;;;;;;;0.57;0.57;;;;;;;22.73;51.21;95859.53;10323880;28;20404;-29
2022/08/15 06:49:34;;;;;;;1.05;0.95;;;;;;;22.62;51.31;95855.63;10323009;28;20038;-29
2022/08/15 06:54:35;;;;;;;1.33;0.70;;;;;;;22.55;51.19;95849.88;10318842;28;20528;-29
2022/08/15 07:00:03;;;;;;;0.95;0.95;;;;;;;22.53;51.17;95854.22;10323486;28;20293;-29
2022/08/15 07:05:24;;;;;;;0.80;0.80;;;;;;;22.56;51.26;95856.66;10321382;28;20640;-29
2022/08/15 07:11:09;;;;;;;1.67;1.08;;;;;;;22.53;51.33;95844.00;10320747;28;20129;-30
2022/08/15 07:16:20;;;;;;;1.05;1.00;;;;;;;22.51;51.23;95850.88;10321760;28;20130;-29
2022/08/15 07:21:22;;;;;;;1.00;0.73;;;;;;;22.68;51.32;95843.56;10332356;28;20097;-30
2022/08/15 07:26:27;;;;;;;1.05;0.95;;;;;;;22.82;50.77;95840.56;10318845;28;20517;-29
2022/08/15 07:31:33;;;;;;;0.60;0.60;;;;;;;22.65;51.33;95835.97;10318648;28;20031;-30
2022/08/15 07:36:35;;;;;;;0.93;0.90;;;;;;;22.56;51.17;95833.69;10322971;28;20117;-29
2022/08/15 07:41:43;;;;;;;0.85;0.70;;;;;;;22.52;51.20;95829.59;10322390;28;20066;-29
2022/08/15 07:46:54;;;;;;;1.08;0.98;;;;;;;22.53;51.18;95826.16;10319777;28;20033;-30
2022/08/15 07:52:13;;;;;;;0.73;0.73;;;;;;;22.52;51.28;95819.38;10319744;28;20046;-29
2022/08/15 07:57:23;;;;;;;0.80;0.80;;;;;;;22.48;51.39;95822.88;10323389;28;20113;-30
2022/08/15 08:02:29;;;;;;;1.00;0.90;;;;;;;22.46;51.32;95814.44;10319815;28;20038;-30
2022/08/15 08:07:42;;;;;;;0.70;0.70;;;;;;;22.70;51.29;95823.91;10319235;28;20029;-29
2022/08/15 08:12:56;;;;;;;0.70;0.70;;;;;;;22.76;50.80;95823.75;10321742;28;20039;-30
2022/08/15 08:18:05;;;;;;;0.70;0.70;;;;;;;22.45;51.31;95796.63;10320663;28;20034;-29
2022/08/15 08:23:16;;;;;;;1.33;1.00;;;;;;;22.49;51.22;95814.34;10320234;28;20031;-29
2022/08/15 08:29:15;;;;;;;0.90;0.90;;;;;;;22.52;51.22;95815.97;10321721;28;20034;-28
2022/08/15 08:34:37;;;;;;;0.90;0.90;;;;;;;22.52;51.34;95815.97;10276039;28;20058;-30
2022/08/15 08:45:56;;;;;;;0.70;0.70;;;;;;;22.47;51.22;95816.13;10311571;28;20047;-29
2022/08/15 08:51:21;;;;;;;0.50;0.50;;;;;;;22.62;51.46;95810.56;10326342;28;20386;-29
2022/08/15 08:56:26;;;;;;;0.60;0.60;;;;;;;22.81;51.01;95810.84;10329248;28;20416;-29
2022/08/15 09:01:29;;;;;;;0.65;0.65;;;;;;;22.67;51.13;95798.50;10328025;28;20121;-29
2022/08/15 09:06:36;;;;;;;0.70;0.70;;;;;;;22.50;51.11;95784.59;10326862;28;20034;-29
2022/08/15 09:12:03;;;;;;;0.65;0.60;;;;;;;22.51;51.37;95794.75;10328370;28;20113;-29
2022/08/15 09:17:10;;;;;;;0.70;0.70;;;;;;;22.51;51.40;95799.00;10326344;28;20117;-29
2022/08/15 09:22:11;;;;;;;0.98;0.90;;;;;;;22.49;51.23;95796.50;10326512;28;20054;-29
2022/08/15 09:27:37;;;;;;;0.70;0.70;;;;;;;22.48;51.37;95776.16;10321672;28;20085;-29
2022/08/15 09:32:49;;;;;;;0.73;0.73;;;;;;;22.46;51.31;95775.34;10325194;28;20110;-28
2022/08/15 09:37:55;;;;;;;0.65;0.65;;;;;;;22.62;51.40;95768.88;10324710;28;20501;-30
2022/08/15 09:43:24;;;;;;;0.70;0.70;;;;;;;22.79;50.88;95777.69;10326039;28;20118;-29
2022/08/15 09:48:33;;;;;;;0.57;0.57;;;;;;;22.63;51.34;95781.59;10326930;28;20052;-29
2022/08/15 09:53:40;;;;;;;0.80;0.80;;;;;;;22.59;51.29;95780.03;10326222;28;20046;-29
2022/08/15 09:58:54;;;;;;;1.10;1.00;;;;;;;22.60;51.42;95771.50;10324755;28;20042;-29
2022/08/15 10:04:02;;;;;;;1.10;1.00;;;;;;;22.61;51.32;95773.16;10324021;28;20050;-29
2022/08/15 10:09:02;;;;;;;1.20;1.10;;;;;;;22.58;51.27;95773.25;10323727;28;20468;-30
2022/08/15 10:14:14;;;;;;;1.13;1.08;;;;;;;22.57;51.28;95771.56;10326509;28;20101;-29
2022/08/15 10:19:35;;;;;;;0.80;0.80;;;;;;;22.55;51.69;95773.34;10324639;28;20038;-29
2022/08/15 10:24:38;;;;;;;1.13;0.80;;;;;;;22.73;51.50;95762.56;10320652;28;20457;-29
2022/08/15 10:29:47;;;;;;;0.63;0.63;;;;;;;22.63;50.98;95743.34;10319994;28;20091;-29
2022/08/15 10:34:56;;;;;;;1.10;1.00;;;;;;;22.66;51.21;95773.84;10322500;28;20034;-29
2022/08/15 10:40:17;;;;;;;0.80;0.80;;;;;;;22.61;51.33;95762.97;10322425;28;20104;-29
2022/08/15 10:45:36;;;;;;;1.08;0.88;;;;;;;22.56;51.19;95764.81;10323826;28;20034;-29
2022/08/15 10:50:52;;;;;;;0.82;0.82;;;;;;;22.53;51.25;95759.81;10321674;28;20041;-29
2022/08/15 10:56:06;;;;;;;0.70;0.70;;;;;;;22.46;51.30;95750.69;10320336;28;20522;-29
2022/08/15 11:01:20;;;;;;;0.50;0.50;;;;;;;22.47;51.33;95744.69;10320704;28;20022;-29
2022/08/15 11:06:23;;;;;;;1.25;0.88;;;;;;;22.59;51.61;95739.22;10324452;28;20038;-29
2022/08/15 11:11:26;;;;;;;0.70;0.68;;;;;;;22.78;51.16;95740.28;10322687;28;20038;-29
2022/08/15 11:16:35;;;;;;;0.65;0.65;;;;;;;22.73;51.41;95734.50;10323351;28;20041;-29
2022/08/15 11:21:45;;;;;;;0.60;0.60;;;;;;;22.63;51.48;95725.47;10320634;28;20062;-29
2022/08/15 11:26:45;;;;;;;0.80;0.80;;;;;;;22.49;51.00;95702.09;10319323;28;20045;-29
2022/08/15 11:31:52;;;;;;;1.20;1.10;;;;;;;22.55;51.39;95721.50;10321539;28;20038;-29
2022/08/15 11:37:00;;;;;;;0.95;0.95;;;;;;;22.52;51.51;95719.88;10321989;28;20062;-29
2022/08/15 11:42:04;;;;;;;1.10;1.00;;;;;;;22.46;51.48;95707.31;10319688;28;20023;-29
2022/08/15 11:47:11;;;;;;;0.65;0.65;;;;;;;22.50;51.47;95724.19;10319710;28;20562;-29
2022/08/15 11:52:11;;;;;;;0.68;0.68;;;;;;;22.64;51.59;95727.13;10321563;28;20046;-29
2022/08/15 11:57:21;;;;;;;1.00;1.00;;;;;;;22.83;51.27;95717.19;10323647;28;20051;-29
2022/08/15 12:02:22;;;;;;;0.60;0.60;;;;;;;22.73;51.31;95716.63;10327849;28;20034;-29
2022/08/15 12:07:28;;;;;;;0.90;0.70;;;;;;;22.62;51.29;95738.28;10328098;28;20169;-30
2022/08/15 12:12:42;;;;;;;1.23;1.13;;;;;;;22.63;51.36;95756.09;10332340;28;20077;-29
2022/08/15 12:18:32;;;;;;;1.45;1.10;;;;;;;22.62;51.93;95805.44;10323335;28;20038;-29
2022/08/15 12:23:43;;;;;;;1.15;1.05;;;;;;;22.71;51.92;95845.16;10322607;28;20077;-29
2022/08/15 12:28:44;;;;;;;1.08;0.98;;;;;;;22.66;51.85;95868.25;10322881;28;20126;-28
2022/08/15 12:33:46;;;;;;;1.02;0.98;;;;;;;22.70;51.96;95905.56;10328180;28;20046;-31
2022/08/15 12:38:46;;;;;;;0.50;0.50;;;;;;;22.81;51.61;95943.56;10327558;28;20062;-29
2022/08/15 12:43:47;;;;;;;0.80;0.80;;;;;;;22.92;50.95;95964.47;10330108;28;20113;-29
2022/08/15 12:48:50;;;;;;;1.38;1.27;;;;;;;22.79;51.71;95981.00;10328637;28;20461;-30
2022/08/15 12:53:50;;;;;;;1.17;1.08;;;;;;;22.72;51.69;95980.38;10327105;28;20038;-29
2022/08/15 12:58:51;;;;;;;1.20;1.10;;;;;;;22.66;51.41;95982.25;10329356;28;20405;-30
2022/08/15 13:03:51;;;;;;;1.15;1.05;;;;;;;22.62;51.33;95994.25;10321878;28;20034;-29
2022/08/15 13:08:52;;;;;;;1.20;0.83;;;;;;;22.58;51.42;95982.47;10326312;28;20038;-29
2022/08/15 13:13:53;;;;;;;0.80;0.80;;;;;;;22.56;51.57;95966.38;10327591;28;20122;-29
2022/08/15 13:18:53;;;;;;;1.15;1.05;;;;;;;22.60;51.85;95974.78;10324162;28;20045;-30
2022/08/15 13:23:54;;;;;;;0.60;0.60;;;;;;;22.71;51.74;95968.50;10326174;28;20081;-29
2022/08/15 13:28:58;;;;;;;0.50;0.50;;;;;;;22.89;50.99;95956.94;10323279;28;20038;-29
2022/08/15 13:33:59;;;;;;;0.68;0.68;;;;;;;22.71;51.50;95937.00;10326866;28;20062;-29
2022/08/15 13:39:03;;;;;;;0.90;0.90;;;;;;;22.65;51.47;95924.47;10325446;28;20493;-30
2022/08/15 13:44:06;;;;;;;1.27;1.10;;;;;;;22.62;51.43;95902.41;10325462;28;20030;-29
2022/08/15 13:49:10;;;;;;;2.40;0.80;;;;;;;22.60;51.36;95888.03;10325349;28;20117;-29
2022/08/15 13:54:12;;;;;;;1.10;1.00;;;;;;;22.53;51.40;95882.28;10324874;28;20040;-28
2022/08/15 13:59:13;;;;;;;1.25;1.15;;;;;;;22.51;51.49;95875.53;10327058;28;20068;-29
2022/08/15 14:04:16;;;;;;;1.02;1.00;;;;;;;22.51;51.46;95894.25;10325450;28;20126;-29
2022/08/15 14:09:18;;;;;;;0.60;0.60;;;;;;;22.73;51.85;95877.41;10323936;28;20038;-29
2022/08/15 14:14:19;;;;;;;1.10;0.90;;;;;;;22.92;51.36;95895.56;10326094;28;20066;-30
2022/08/15 14:19:20;;;;;;;1.10;1.00;;;;;;;22.87;51.95;95898.25;10326713;28;20038;-30
2022/08/15 14:24:21;;;;;;;1.15;1.05;;;;;;;22.84;52.32;95866.88;10323718;28;20026;-29
2022/08/15 14:29:33;;;;;;;1.42;1.13;;;;;;;22.88;52.36;95874.41;10321062;28;20656;-29
2022/08/15 14:34:34;;;;;;;0.90;0.90;;;;;;;22.88;52.47;95896.53;10327885;28;20073;-29
2022/08/15 14:39:34;;;;;;;1.23;1.13;;;;;;;22.87;52.50;95893.16;10325332;28;20480;-29
2022/08/15 14:44:35;;;;;;;1.20;1.10;;;;;;;22.88;52.46;95882.06;10322674;28;20065;-29
2022/08/15 14:49:36;;;;;;;1.30;1.20;;;;;;;22.89;52.45;95875.25;10325039;28;20450;-29
2022/08/15 14:54:37;;;;;;;1.20;1.10;;;;;;;22.95;51.63;95869.94;10320109;28;20049;-29
2022/08/15 14:59:38;;;;;;;1.05;0.95;;;;;;;23.05;51.17;95869.59;10324597;28;20034;-29
2022/08/15 15:04:38;;;;;;;1.08;1.08;;;;;;;23.00;51.95;95868.06;10321980;28;20030;-29
2022/08/15 15:09:39;;;;;;;0.80;0.80;;;;;;;22.96;52.20;95880.09;10321982;28;20118;-29
2022/08/15 15:14:41;;;;;;;0.98;0.93;;;;;;;22.94;52.35;95879.31;10322098;28;20034;-28
2022/08/15 15:19:42;;;;;;;1.30;1.05;;;;;;;22.91;52.49;95871.72;10324142;28;20122;-29
2022/08/15 15:24:43;;;;;;;1.10;1.02;;;;;;;22.87;52.49;95846.34;10321728;28;20032;-29
2022/08/15 15:29:46;;;;;;;1.20;1.00;;;;;;;22.91;52.60;95846.22;10313314;28;20035;-28
2022/08/15 15:34:47;;;;;;;0.90;0.90;;;;;;;22.91;52.31;95853.88;10327586;28;20084;-29
2022/08/15 15:39:47;;;;;;;0.90;0.90;;;;;;;22.87;51.66;95857.41;10329719;28;20056;-30
2022/08/15 15:44:48;;;;;;;0.85;0.85;;;;;;;23.00;51.42;95862.97;10332483;28;20111;-29
2022/08/15 15:49:48;;;;;;;0.80;0.70;;;;;;;22.83;51.55;95850.72;10329167;28;20038;-28
2022/08/15 15:54:50;;;;;;;0.93;0.80;;;;;;;22.73;51.85;95853.63;10329233;28;20065;-30
2022/08/15 15:59:50;;;;;;;0.80;0.80;;;;;;;22.64;51.54;95859.81;10328320;28;20034;-29
2022/08/15 16:04:50;;;;;;;2.57;1.10;;;;;;;22.60;51.69;95857.41;10331385;28;20440;-31
2022/08/15 16:09:53;;;;;;;0.73;0.70;;;;;;;22.57;51.72;95873.63;10328517;28;20443;-29
2022/08/15 16:15:04;;;;;;;0.60;0.60;;;;;;;22.57;51.60;95868.53;10328602;28;20045;-30
2022/08/15 16:20:18;;;;;;;3.25;1.10;;;;;;;22.54;51.53;95863.53;10330409;28;20034;-29
2022/08/15 16:25:33;;;;;;;0.80;0.80;;;;;;;22.70;51.92;95869.84;10328106;28;20034;-29
2022/08/15 16:30:51;;;;;;;0.77;0.77;;;;;;;22.87;51.58;95859.97;10328403;28;20046;-29
2022/08/15 16:35:59;;;;;;;0.70;0.70;;;;;;;22.71;51.77;95860.47;10330285;28;20062;-29
2022/08/15 16:41:18;;;;;;;1.00;0.73;;;;;;;22.63;51.57;95855.59;10327852;28;20031;-29
2022/08/15 16:46:34;;;;;;;0.77;0.77;;;;;;;22.58;51.63;95852.34;10323499;28;20041;-30
2022/08/15 16:51:57;;;;;;;0.73;0.60;;;;;;;22.59;51.60;95856.59;10326507;28;20044;-29
2022/08/15 16:57:07;;;;;;;0.95;0.95;;;;;;;22.55;51.70;95870.28;10325474;28;20046;-29
2022/08/15 17:02:55;;;;;;;0.63;0.60;;;;;;;22.51;51.63;95873.84;10326695;28;20069;-28
2022/08/15 17:08:10;;;;;;;0.70;0.70;;;;;;;22.51;52.18;95868.72;10316512;28;20152;-29
2022/08/15 17:13:28;;;;;;;1.40;0.75;;;;;;;22.77;51.96;95881.56;10329110;28;20073;-29
2022/08/15 17:18:58;;;;;;;0.77;0.77;;;;;;;22.76;51.91;95889.25;10326949;28;20046;-29
2022/08/15 17:24:22;;;;;;;0.70;0.70;;;;;;;22.64;51.81;95898.09;10323973;28;20033;-30
2022/08/15 17:29:32;;;;;;;1.00;0.70;;;;;;;22.62;51.69;95907.50;10321085;28;20539;-29
2022/08/15 17:34:33;;;;;;;0.70;0.70;;;;;;;22.62;51.73;95907.50;10325540;28;20048;-29
2022/08/15 17:39:37;;;;;;;1.10;1.00;;;;;;;22.53;51.72;95897.56;10325621;28;20038;-29
2022/08/15 17:44:51;;;;;;;1.10;1.00;;;;;;;22.58;51.57;95920.41;10327933;28;20626;-28
2022/08/15 17:50:04;;;;;;;0.50;0.50;;;;;;;22.56;51.69;95910.22;10323666;28;20038;-29
2022/08/15 17:55:13;;;;;;;0.77;0.77;;;;;;;22.68;52.08;95907.34;10321340;28;20039;-30
2022/08/15 18:00:24;;;;;;;0.57;0.57;;;;;;;22.89;51.73;95921.19;10322979;28;20066;-29
2022/08/15 18:05:26;;;;;;;0.57;0.57;;;;;;;22.75;52.12;95929.22;10326450;28;20405;-30
2022/08/15 18:10:49;;;;;;;0.77;0.77;;;;;;;22.68;51.81;95943.06;10324263;28;20412;-29
2022/08/15 18:16:16;;;;;;;1.10;0.93;;;;;;;22.62;51.77;95948.34;10324066;28;20096;-30
2022/08/15 18:21:36;;;;;;;;;;;;;;;22.63;51.79;95961.91;10326355;28;20481;-29
2022/08/15 18:26:50;;;;;;;1.15;1.08;;;;;;;22.57;52.09;95960.38;10320927;28;19952;-29
2022/08/15 18:31:54;;;;;;;0.82;0.82;;;;;;;22.55;51.56;95956.22;10322908;28;20545;-29
2022/08/15 18:36:56;;;;;;;0.98;0.90;;;;;;;22.52;51.75;95957.13;10322827;28;20045;-31
2022/08/15 18:41:57;;;;;;;0.77;0.70;;;;;;;22.75;52.10;95953.94;10326221;28;20034;-29
2022/08/15 18:47:07;;;;;;;0.70;0.60;;;;;;;22.85;51.73;95970.66;10323470;28;20034;-29
2022/08/15 18:52:10;;;;;;;0.65;0.65;;;;;;;22.65;52.03;95968.66;10323378;28;20121;-29
2022/08/15 18:57:11;;;;;;;0.60;0.60;;;;;;;22.60;51.75;95967.13;10324726;28;20080;-28
2022/08/15 19:02:18;;;;;;;0.98;0.98;;;;;;;22.55;51.81;95972.34;10324444;28;20065;-29
2022/08/15 19:07:22;;;;;;;0.95;0.60;;;;;;;22.54;51.82;95978.34;10320518;28;20026;-30
2022/08/15 19:12:40;;;;;;;0.93;0.60;;;;;;;22.55;51.75;95991.94;10322973;28;20030;-29
2022/08/15 19:17:50;;;;;;;0.80;0.80;;;;;;;22.57;51.81;95990.16;10319349;28;20065;-29
2022/08/15 19:22:53;;;;;;;1.13;1.02;;;;;;;22.59;52.27;95994.38;10320471;28;20519;-29
2022/08/15 19:28:05;;;;;;;0.80;0.80;;;;;;;22.80;52.46;95988.63;10319327;28;20045;-31
2022/08/15 19:33:26;;;;;;;0.70;0.70;;;;;;;22.80;51.54;95992.91;10319043;28;20129;-30
2022/08/15 19:38:41;;;;;;;0.90;0.70;;;;;;;22.69;51.89;95995.78;10321490;28;20065;-28
2022/08/15 19:44:19;;;;;;;1.25;1.15;;;;;;;22.64;51.89;95991.69;10318371;28;20125;-29
2022/08/15 19:55:08;;;;;;;1.38;1.27;;;;;;;22.63;51.93;95989.97;10321625;28;20547;-29
2022/08/15 20:00:20;;;;;;;2.40;1.27;;;;;;;22.64;52.77;95996.78;10321321;28;20049;-29
2022/08/15 20:05:30;;;;;;;1.77;1.10;;;;;;;22.64;52.15;96005.25;10323705;28;20041;-29
2022/08/15 20:10:54;;;;;;;0.60;0.60;;;;;;;22.74;52.36;96014.31;10320744;28;20386;-29
2022/08/15 20:16:11;;;;;;;0.68;0.68;;;;;;;22.93;51.56;96015.50;10320065;28;20023;-29
2022/08/15 20:21:18;;;;;;;0.60;0.60;;;;;;;22.75;51.99;96005.78;10327016;28;20040;-29
2022/08/15 20:26:24;;;;;;;1.15;1.05;;;;;;;22.67;51.79;96012.84;10324909;28;20110;-29
2022/08/15 20:31:33;;;;;;;1.23;1.13;;;;;;;22.64;51.94;96019.75;10328216;28;20081;-29
2022/08/15 20:36:40;;;;;;;1.10;1.00;;;;;;;22.62;52.65;96003.63;10327077;28;20740;-29
2022/08/15 20:41:47;;;;;;;1.13;1.02;;;;;;;22.71;52.73;96023.78;10328222;28;20456;-29
2022/08/15 20:46:52;;;;;;;1.85;1.48;;;;;;;22.70;52.25;96033.16;10329014;28;20043;-28
2022/08/15 20:51:57;;;;;;;1.48;1.20;;;;;;;22.70;52.73;96030.63;10328184;28;21253;-30
2022/08/15 20:56:59;;;;;;;0.80;0.80;;;;;;;22.84;52.14;96031.09;10329147;28;20046;-29
2022/08/15 21:02:23;;;;;;;1.10;0.88;;;;;;;22.90;51.48;96041.09;10329118;28;20101;-29
2022/08/15 21:07:46;;;;;;;0.90;0.90;;;;;;;22.78;52.08;96041.44;10324790;28;20413;-30
2022/08/15 21:13:12;;;;;;;1.25;1.15;;;;;;;22.70;52.04;96048.47;10328800;28;20042;-28
2022/08/15 21:18:22;;;;;;;1.20;1.10;;;;;;;22.64;51.76;96053.75;10326504;28;20034;-30
2022/08/15 21:23:24;;;;;;;1.27;1.17;;;;;;;22.62;51.78;96050.41;10326757;28;20038;-28
2022/08/15 21:28:33;;;;;;;1.10;1.00;;;;;;;22.60;51.77;96052.16;10324412;28;20417;-29
2022/08/15 21:33:40;;;;;;;1.05;1.02;;;;;;;22.63;51.93;96053.78;10325725;28;20181;-29
2022/08/15 21:38:52;;;;;;;1.25;1.10;;;;;;;22.68;53.36;96050.25;10327634;28;20038;-29
2022/08/15 21:44:14;;;;;;;1.00;1.00;;;;;;;22.91;52.54;96068.28;10330238;28;20132;-29
2022/08/15 21:49:33;;;;;;;0.70;0.70;;;;;;;22.83;52.08;96054.91;10326574;28;20050;-29
2022/08/15 21:54:58;;;;;;;1.50;1.40;;;;;;;22.79;52.81;96061.00;10324966;28;20046;-29
2022/08/15 22:00:06;;;;;;;1.05;1.02;;;;;;;22.77;52.71;96054.25;10322764;28;20050;-29
2022/08/15 22:05:16;;;;;;;1.50;1.40;;;;;;;22.74;52.32;96057.72;10325318;28;20038;-29
2022/08/15 22:10:21;;;;;;;1.13;1.00;;;;;;;22.67;51.81;96057.94;10323098;28;20034;-29
2022/08/15 22:15:22;;;;;;;1.35;1.25;;;;;;;22.66;51.98;96051.97;10326456;28;20038;-29
2022/08/15 22:20:24;;;;;;;2.13;1.90;;;;;;;22.68;52.27;96054.50;10325506;28;20515;-31
2022/08/15 22:25:32;;;;;;;1.00;1.00;;;;;;;22.76;52.38;96065.34;10324219;28;20035;-29
2022/08/15 22:30:33;;;;;;;0.85;0.85;;;;;;;22.93;51.96;96071.66;10318779;28;20117;-29
2022/08/15 22:35:34;;;;;;;0.80;0.80;;;;;;;22.77;52.12;96065.31;10319781;28;20034;-29
2022/08/15 22:40:38;;;;;;;1.35;1.25;;;;;;;22.72;51.78;96071.41;10323182;28;20493;-28
2022/08/15 22:45:46;;;;;;;1.20;1.10;;;;;;;22.68;52.04;96074.91;10322454;28;20030;-31
2022/08/15 22:50:54;;;;;;;1.20;1.10;;;;;;;22.63;51.94;96069.94;10325230;28;20030;-29
2022/08/15 22:55:55;;;;;;;1.55;1.45;;;;;;;22.63;51.94;96072.47;10321453;28;20042;-30
2022/08/15 23:00:58;;;;;;;1.10;1.00;;;;;;;22.62;52.09;96070.81;10323899;28;20108;-29
2022/08/15 23:06:08;;;;;;;1.27;1.17;;;;;;;22.64;51.97;96073.34;10324545;28;20448;-28
2022/08/15 23:11:18;;;;;;;0.60;0.60;;;;;;;22.73;52.27;96073.09;10322226;28;20038;-31
2022/08/15 23:16:29;;;;;;;0.82;0.82;;;;;;;22.92;51.63;96074.25;10322068;28;20046;-29
2022/08/15 23:21:29;;;;;;;0.80;0.80;;;;;;;22.70;51.86;96052.72;10323066;28;20061;-30
2022/08/15 23:26:31;;;;;;;1.00;1.00;;;;;;;22.66;51.91;96064.75;10318297;28;20109;-29
2022/08/15 23:31:36;;;;;;;1.25;0.90;;;;;;;22.66;52.18;96067.28;10323065;28;20465;-31
2022/08/15 23:37:08;;;;;;;1.35;1.10;;;;;;;22.65;51.84;96063.06;10320657;28;20456;-29
2022/08/15 23:42:15;;;;;;;1.70;1.60;;;;;;;22.61;51.81;96064.03;10313687;28;20038;-29
2022/08/15 23:47:16;;;;;;;1.48;1.17;;;;;;;22.63;51.87;96067.38;10322275;28;20046;-29
2022/08/15 23:52:17;;;;;;;1.40;1.30;;;;;;;22.63;52.15;96057.16;10322117;28;20496;-29
2022/08/15 23:57:17;;;;;;;1.38;0.80;;;;;;;22.78;52.13;96051.66;10329096;28;20100;-30
